createdAt,value
2023-03-17T00:00:48.043Z,4.66
2023-03-17T00:03:24.591Z,4.62
2023-03-17T00:05:55.417Z,4.59
2023-03-17T00:08:27.262Z,4.67
2023-03-17T00:10:56.810Z,4.54
2023-03-17T00:13:25.042Z,4.53
2023-03-17T00:15:57.655Z,4.57
2023-03-17T00:18:27.278Z,4.52
2023-03-17T00:20:55.020Z,4.49
2023-03-17T00:23:25.677Z,4.42
2023-03-17T00:25:54.551Z,4.41
2023-03-17T00:28:25.376Z,4.38
2023-03-17T00:30:58.123Z,4.45
2023-03-17T00:33:30.543Z,4.45
2023-03-17T00:35:59.673Z,4.42
2023-03-17T00:38:28.546Z,4.49
2023-03-17T00:40:56.596Z,4.43
2023-03-17T00:43:24.526Z,4.41
2023-03-17T00:45:52.611Z,4.43
2023-03-17T00:48:22.835Z,4.44
2023-03-17T00:50:52.184Z,4.44
2023-03-17T00:53:22.396Z,4.46
2023-03-17T00:55:50.775Z,4.40
2023-03-17T00:58:26.917Z,4.46
2023-03-17T01:00:55.316Z,4.46
2023-03-17T01:03:24.787Z,4.52
2023-03-17T01:05:56.985Z,4.52
2023-03-17T01:08:26.327Z,4.48
2023-03-17T01:10:54.688Z,4.51
2023-03-17T01:13:22.939Z,4.55
2023-03-17T01:15:52.560Z,4.58
2023-03-17T01:18:22.834Z,4.54
2023-03-17T01:20:54.005Z,4.61
2023-03-17T01:23:22.132Z,4.62
2023-03-17T01:25:50.745Z,4.55
2023-03-17T01:28:20.892Z,4.58
2023-03-17T01:30:49.954Z,4.56
2023-03-17T01:33:18.127Z,4.55
2023-03-17T01:35:46.765Z,4.60
2023-03-17T01:38:17.468Z,4.60
2023-03-17T01:40:49.477Z,4.57
2023-03-17T01:43:22.646Z,4.57
2023-03-17T01:46:29.660Z,4.60
2023-03-17T01:49:26.242Z,4.58
2023-03-17T01:52:05.938Z,4.57
2023-03-17T01:54:44.319Z,4.50
2023-03-17T01:57:20.006Z,4.55
2023-03-17T01:59:53.451Z,4.57
2023-03-17T02:02:29.642Z,4.57
2023-03-17T02:04:59.726Z,4.61
2023-03-17T02:07:29.187Z,4.58
2023-03-17T02:09:59.245Z,4.56
2023-03-17T02:12:30.439Z,4.60
2023-03-17T02:14:59.451Z,4.53
2023-03-17T02:17:30.100Z,4.55
2023-03-17T02:19:58.103Z,4.48
2023-03-17T02:22:28.015Z,4.47
2023-03-17T02:25:00.750Z,4.57
2023-03-17T02:27:35.460Z,4.57
2023-03-17T02:30:03.961Z,4.62
2023-03-17T02:32:35.553Z,4.56
2023-03-17T02:35:04.948Z,4.53
2023-03-17T02:37:34.643Z,4.60
2023-03-17T02:40:02.910Z,4.53
2023-03-17T02:42:30.882Z,4.50
2023-03-17T02:44:58.837Z,4.56
2023-03-17T02:47:27.616Z,4.49
2023-03-17T02:49:56.260Z,4.46
2023-03-17T02:52:24.180Z,4.63
2023-03-17T02:54:53.694Z,4.51
2023-03-17T02:57:22.030Z,4.52
2023-03-17T02:59:51.304Z,4.52
2023-03-17T03:02:19.335Z,4.56
2023-03-17T03:04:47.738Z,4.51
2023-03-17T03:07:16.112Z,4.54
2023-03-17T03:09:44.068Z,4.46
2023-03-17T03:12:13.913Z,4.50
2023-03-17T03:14:42.517Z,4.46
2023-03-17T03:17:11.060Z,4.55
2023-03-17T03:19:39.351Z,4.60
2023-03-17T03:22:08.282Z,4.40
2023-03-17T03:24:37.272Z,4.53
2023-03-17T03:27:05.447Z,4.55
2023-03-17T03:29:35.420Z,4.51
2023-03-17T03:32:03.367Z,4.46
2023-03-17T03:34:31.853Z,4.52
2023-03-17T03:36:59.794Z,4.49
2023-03-17T03:39:27.862Z,4.46
2023-03-17T03:41:57.328Z,4.50
2023-03-17T03:44:25.920Z,4.39
2023-03-17T03:46:55.222Z,4.42
2023-03-17T03:49:23.237Z,4.41
2023-03-17T03:51:51.449Z,4.40
2023-03-17T03:54:19.399Z,4.41
2023-03-17T03:56:47.311Z,4.42
2023-03-17T03:59:15.202Z,4.34
2023-03-17T04:01:43.100Z,4.33
2023-03-17T04:04:12.438Z,4.45
2023-03-17T04:06:40.421Z,4.35
2023-03-17T04:09:10.656Z,4.33
2023-03-17T04:11:38.592Z,4.31
2023-03-17T04:14:07.033Z,4.30
2023-03-17T04:16:34.962Z,4.28
2023-03-17T04:19:02.987Z,4.28
2023-03-17T04:21:32.307Z,4.28
2023-03-17T04:24:00.281Z,4.33
2023-03-17T04:26:28.119Z,4.21
2023-03-17T04:28:56.000Z,4.32
2023-03-17T04:31:24.228Z,4.25
2023-03-17T04:33:52.544Z,4.17
2023-03-17T04:36:23.108Z,4.25
2023-03-17T04:38:52.694Z,4.24
2023-03-17T04:41:21.276Z,4.19
2023-03-17T04:43:49.168Z,4.15
2023-03-17T04:46:17.417Z,4.17
2023-03-17T04:48:45.416Z,4.16
2023-03-17T04:51:13.358Z,4.10
2023-03-17T04:53:41.425Z,4.10
2023-03-17T04:56:10.729Z,4.17
2023-03-17T04:58:39.008Z,4.10
2023-03-17T05:01:08.605Z,4.17
2023-03-17T05:03:36.777Z,4.13
2023-03-17T05:06:06.010Z,4.17
2023-03-17T05:08:33.992Z,4.19
2023-03-17T05:11:02.167Z,4.25
2023-03-17T05:13:31.591Z,4.22
2023-03-17T05:16:00.826Z,4.14
2023-03-17T05:18:28.844Z,4.12
2023-03-17T05:20:56.884Z,4.17
2023-03-17T05:23:25.838Z,4.21
2023-03-17T05:25:54.550Z,4.29
2023-03-17T05:28:22.725Z,4.28
2023-03-17T05:30:52.810Z,4.30
2023-03-17T05:33:21.568Z,4.32
2023-03-17T05:35:49.996Z,4.34
2023-03-17T05:38:18.755Z,4.39
2023-03-17T05:40:48.365Z,4.34
2023-03-17T05:43:16.464Z,4.41
2023-03-17T05:45:45.078Z,4.42
2023-03-17T05:48:14.516Z,4.49
2023-03-17T05:50:42.800Z,4.42
2023-03-17T05:53:11.662Z,4.47
2023-03-17T05:55:40.499Z,4.45
2023-03-17T05:58:09.541Z,4.58
2023-03-17T06:00:38.895Z,4.54
2023-03-17T06:03:07.738Z,4.61
2023-03-17T06:05:37.964Z,4.58
2023-03-17T06:08:06.382Z,4.63
2023-03-17T06:10:35.050Z,4.60
2023-03-17T06:13:04.574Z,4.64
2023-03-17T06:15:34.166Z,4.68
2023-03-17T06:18:02.618Z,4.73
2023-03-17T06:20:31.274Z,4.79
2023-03-17T06:23:04.780Z,4.72
2023-03-17T06:25:34.406Z,4.82
2023-03-17T06:28:03.663Z,4.84
2023-03-17T06:30:32.910Z,4.88
2023-03-17T06:33:01.610Z,4.93
2023-03-17T06:35:30.304Z,4.94
2023-03-17T06:38:00.803Z,4.99
2023-03-17T06:40:28.997Z,4.94
2023-03-17T06:42:57.086Z,5.02
2023-03-17T06:45:25.429Z,4.98
2023-03-17T06:47:53.448Z,5.07
2023-03-17T06:50:22.218Z,5.22
2023-03-17T06:52:50.471Z,5.18
2023-03-17T06:55:20.099Z,5.30
2023-03-17T06:57:49.828Z,5.39
2023-03-17T07:00:20.951Z,5.43
2023-03-17T07:02:49.406Z,5.42
2023-03-17T07:05:17.869Z,5.57
2023-03-17T07:07:46.107Z,5.49
2023-03-17T07:10:17.227Z,5.57
2023-03-17T07:12:46.951Z,5.58
2023-03-17T07:15:17.227Z,5.68
2023-03-17T07:17:46.705Z,5.56
2023-03-17T07:20:14.981Z,5.79
2023-03-17T07:22:43.439Z,5.85
2023-03-17T07:25:11.905Z,6.03
2023-03-17T07:27:40.074Z,6.02
2023-03-17T07:30:12.843Z,6.29
2023-03-17T07:32:40.946Z,6.40
2023-03-17T07:35:09.163Z,6.40
2023-03-17T07:37:37.068Z,6.50
2023-03-17T07:40:06.519Z,6.52
2023-03-17T07:42:34.458Z,6.50
2023-03-17T07:45:02.507Z,6.54
2023-03-17T07:47:31.792Z,6.66
2023-03-17T07:49:59.789Z,6.83
2023-03-17T07:52:27.829Z,6.83
2023-03-17T07:54:56.072Z,6.84
2023-03-17T07:57:24.115Z,6.92
2023-03-17T07:59:52.104Z,7.09
2023-03-17T08:02:21.136Z,7.26
2023-03-17T08:04:50.974Z,7.23
2023-03-17T08:07:19.459Z,7.52
2023-03-17T08:09:47.797Z,7.65
2023-03-17T08:12:16.362Z,7.66
2023-03-17T08:14:44.296Z,7.65
2023-03-17T08:17:13.610Z,7.68
2023-03-17T08:19:42.319Z,7.75
2023-03-17T08:22:12.369Z,7.86
2023-03-17T08:24:42.848Z,8.11
2023-03-17T08:27:10.824Z,8.06
2023-03-17T08:29:40.627Z,7.93
2023-03-17T08:32:09.510Z,8.12
2023-03-17T08:34:37.970Z,8.25
2023-03-17T08:37:07.176Z,8.35
2023-03-17T08:39:37.458Z,8.13
2023-03-17T08:42:06.991Z,8.32
2023-03-17T08:44:35.340Z,8.49
2023-03-17T08:47:04.189Z,8.48
2023-03-17T08:49:34.840Z,8.54
2023-03-17T08:52:03.438Z,8.47
2023-03-17T08:54:31.481Z,8.48
2023-03-17T08:57:01.748Z,8.62
2023-03-17T08:59:29.776Z,8.58
2023-03-17T09:01:57.774Z,8.70
2023-03-17T09:04:26.633Z,8.66
2023-03-17T09:07:03.274Z,8.70
2023-03-17T09:09:32.096Z,8.89
2023-03-17T09:12:03.073Z,9.09
2023-03-17T09:14:40.139Z,9.20
2023-03-17T09:17:11.203Z,9.09
2023-03-17T09:19:40.336Z,9.50
2023-03-17T09:22:08.742Z,9.76
2023-03-17T09:24:36.719Z,9.65
2023-03-17T09:27:07.030Z,9.61
2023-03-17T09:29:35.521Z,9.61
2023-03-17T09:32:03.655Z,9.79
2023-03-17T09:34:31.700Z,9.71
2023-03-17T09:37:00.072Z,9.73
2023-03-17T09:39:28.506Z,9.88
2023-03-17T09:42:20.228Z,9.98
2023-03-17T09:45:24.476Z,10.19
2023-03-17T09:48:23.677Z,10.34
2023-03-17T09:50:58.929Z,10.48
2023-03-17T09:53:34.154Z,10.68
2023-03-17T09:56:09.102Z,10.60
2023-03-17T09:58:43.300Z,10.83
2023-03-17T10:01:12.748Z,10.65
2023-03-17T10:03:41.368Z,10.78
2023-03-17T10:06:37.574Z,10.75
2023-03-17T10:09:27.156Z,10.95
2023-03-17T10:12:03.224Z,11.08
2023-03-17T10:14:51.023Z,11.04
2023-03-17T10:17:23.112Z,11.12
2023-03-17T10:20:01.750Z,11.27
2023-03-17T10:22:38.572Z,11.39
2023-03-17T10:25:16.533Z,11.48
2023-03-17T10:27:51.685Z,11.55
2023-03-17T10:30:24.402Z,11.44
2023-03-17T10:32:53.689Z,11.75
2023-03-17T10:35:24.787Z,11.46
2023-03-17T10:38:04.410Z,11.61
2023-03-17T10:40:40.370Z,11.70
2023-03-17T10:43:17.114Z,11.85
2023-03-17T10:46:00.846Z,12.02
2023-03-17T10:48:36.319Z,12.31
2023-03-17T10:51:10.102Z,12.41
2023-03-17T10:53:43.316Z,12.59
2023-03-17T10:56:23.050Z,12.56
2023-03-17T10:58:52.686Z,12.46
2023-03-17T11:01:30.263Z,12.62
2023-03-17T11:04:00.413Z,12.93
2023-03-17T11:06:37.947Z,13.11
2023-03-17T11:09:10.991Z,13.16
2023-03-17T11:11:47.373Z,13.16
2023-03-17T11:14:18.586Z,13.14
2023-03-17T11:16:55.837Z,13.20
2023-03-17T11:19:37.648Z,13.33
2023-03-17T11:22:15.050Z,13.50
2023-03-17T11:24:59.633Z,13.18
2023-03-17T11:27:33.819Z,13.25
2023-03-17T11:30:18.629Z,13.17
2023-03-17T11:32:58.922Z,12.93
2023-03-17T11:35:49.705Z,12.96
2023-03-17T11:38:28.162Z,12.91
2023-03-17T11:41:36.925Z,13.12
2023-03-17T11:44:37.126Z,13.14
2023-03-17T11:47:20.494Z,13.17
2023-03-17T11:50:08.219Z,13.67
2023-03-17T11:52:53.274Z,13.95
2023-03-17T11:55:26.985Z,14.04
2023-03-17T11:58:01.033Z,13.90
2023-03-17T12:00:35.364Z,13.68
2023-03-17T12:03:18.563Z,13.76
2023-03-17T12:05:58.232Z,13.33
2023-03-17T12:08:34.393Z,13.14
2023-03-17T12:11:10.543Z,13.12
2023-03-17T12:13:45.657Z,13.21
2023-03-17T12:16:25.727Z,13.51
2023-03-17T12:19:07.604Z,13.33
2023-03-17T12:21:46.496Z,13.47
2023-03-17T12:24:20.703Z,13.44
2023-03-17T12:26:57.915Z,13.40
2023-03-17T12:29:43.106Z,13.40
2023-03-17T12:32:19.711Z,13.38
2023-03-17T12:34:53.468Z,13.56
2023-03-17T12:37:25.110Z,13.49
2023-03-17T12:40:01.683Z,13.46
2023-03-17T12:42:39.513Z,13.52
2023-03-17T12:45:41.280Z,13.49
2023-03-17T12:48:34.330Z,13.54
2023-03-17T12:51:31.006Z,13.72
2023-03-17T12:54:00.960Z,13.61
2023-03-17T12:56:31.805Z,13.52
2023-03-17T12:59:08.611Z,13.72
2023-03-17T13:01:41.682Z,13.72
2023-03-17T13:04:25.848Z,13.83
2023-03-17T13:07:07.367Z,13.82
2023-03-17T13:09:46.054Z,13.72
2023-03-17T13:13:05.683Z,13.95
2023-03-17T13:15:57.293Z,13.82
2023-03-17T13:18:50.109Z,14.04
2023-03-17T13:21:23.704Z,13.89
2023-03-17T13:23:59.751Z,13.96
2023-03-17T13:27:02.198Z,13.91
2023-03-17T13:29:47.220Z,14.08
2023-03-17T13:32:38.074Z,14.05
2023-03-17T13:35:22.495Z,14.22
2023-03-17T13:38:42.732Z,14.20
2023-03-17T13:41:32.994Z,14.23
2023-03-17T13:44:28.993Z,14.17
2023-03-17T13:47:10.190Z,14.17
2023-03-17T13:49:38.746Z,14.18
2023-03-17T13:52:16.171Z,14.08
2023-03-17T13:54:50.743Z,13.99
2023-03-17T13:57:28.621Z,14.10
2023-03-17T14:00:05.651Z,14.20
2023-03-17T14:02:39.141Z,14.19
2023-03-17T14:05:09.918Z,14.30
2023-03-17T14:07:49.743Z,14.32
2023-03-17T14:10:20.829Z,14.41
2023-03-17T14:13:00.835Z,14.60
2023-03-17T14:15:40.698Z,14.53
2023-03-17T14:18:17.478Z,14.26
2023-03-17T14:20:54.177Z,14.43
2023-03-17T14:23:22.509Z,14.41
2023-03-17T14:25:51.423Z,14.45
2023-03-17T14:28:26.701Z,14.40
2023-03-17T14:31:01.098Z,14.20
2023-03-17T14:33:32.147Z,14.26
2023-03-17T14:36:04.195Z,14.22
2023-03-17T14:38:35.337Z,14.29
2023-03-17T14:41:06.678Z,14.30
2023-03-17T14:43:37.206Z,14.24
2023-03-17T14:46:08.931Z,14.13
2023-03-17T14:48:41.232Z,14.10
2023-03-17T14:51:16.086Z,14.18
2023-03-17T14:53:46.492Z,14.04
2023-03-17T14:56:14.951Z,13.97
2023-03-17T14:58:47.716Z,13.93
2023-03-17T15:01:38.756Z,14.03
2023-03-17T15:04:13.706Z,13.84
2023-03-17T15:06:50.941Z,13.84
2023-03-17T15:09:25.808Z,13.91
2023-03-17T15:12:06.886Z,13.89
2023-03-17T15:14:38.770Z,13.78
2023-03-17T15:17:19.381Z,13.62
2023-03-17T15:19:51.015Z,13.56
2023-03-17T15:22:30.197Z,13.52
2023-03-17T15:25:04.406Z,13.52
2023-03-17T15:27:33.503Z,13.46
2023-03-17T15:30:01.469Z,13.50
2023-03-17T15:32:32.179Z,13.49
2023-03-17T15:35:00.190Z,13.40
2023-03-17T15:37:31.782Z,13.38
2023-03-17T15:40:01.220Z,13.45
2023-03-17T15:42:32.631Z,13.40
2023-03-17T15:45:01.514Z,13.31
2023-03-17T15:47:35.286Z,13.23
2023-03-17T15:50:14.684Z,13.32
2023-03-17T15:52:42.745Z,13.33
2023-03-17T15:55:20.851Z,13.24
2023-03-17T15:57:55.278Z,13.24
2023-03-17T16:00:26.484Z,13.11
2023-03-17T16:03:00.026Z,13.16
2023-03-17T16:05:32.451Z,13.15
2023-03-17T16:08:00.660Z,13.13
2023-03-17T16:10:31.774Z,13.12
2023-03-17T16:13:00.752Z,13.13
2023-03-17T16:15:33.390Z,13.09
2023-03-17T16:18:08.513Z,13.01
2023-03-17T16:20:41.089Z,12.95
2023-03-17T16:23:16.121Z,12.96
2023-03-17T16:25:46.138Z,12.87
2023-03-17T16:28:18.987Z,12.91
2023-03-17T16:30:48.494Z,12.89
2023-03-17T16:33:21.514Z,12.81
2023-03-17T16:35:50.709Z,12.70
2023-03-17T16:38:23.978Z,12.80
2023-03-17T16:40:54.997Z,12.63
2023-03-17T16:43:27.093Z,12.56
2023-03-17T16:45:58.166Z,12.68
2023-03-17T16:48:28.301Z,12.62
2023-03-17T16:50:57.697Z,12.45
2023-03-17T16:53:26.618Z,12.52
2023-03-17T16:55:55.817Z,12.49
2023-03-17T16:58:26.486Z,12.46
2023-03-17T17:01:01.188Z,12.39
2023-03-17T17:03:32.052Z,12.38
2023-03-17T17:06:00.408Z,12.39
2023-03-17T17:08:28.373Z,12.32
2023-03-17T17:10:58.370Z,12.36
2023-03-17T17:13:26.460Z,12.34
2023-03-17T17:16:26.601Z,12.30
2023-03-17T17:18:57.130Z,12.15
2023-03-17T17:21:34.271Z,12.15
2023-03-17T17:24:02.245Z,12.12
2023-03-17T17:26:30.150Z,12.21
2023-03-17T17:28:58.115Z,12.17
2023-03-17T17:31:26.496Z,12.12
2023-03-17T17:33:58.996Z,12.13
2023-03-17T17:36:28.118Z,12.15
2023-03-17T17:38:56.144Z,12.03
2023-03-17T17:41:24.384Z,12.05
2023-03-17T17:43:53.690Z,11.98
2023-03-17T17:46:23.810Z,11.97
2023-03-17T17:48:51.931Z,11.92
2023-03-17T17:51:23.706Z,11.93
2023-03-17T17:53:51.745Z,11.87
2023-03-17T17:56:20.025Z,11.88
2023-03-17T17:58:48.092Z,11.77
2023-03-17T18:01:19.797Z,11.70
2023-03-17T18:03:47.962Z,11.70
2023-03-17T18:06:17.354Z,11.79
2023-03-17T18:08:47.576Z,11.79
2023-03-17T18:11:15.592Z,11.75
2023-03-17T18:13:43.568Z,11.71
2023-03-17T18:16:17.555Z,11.69
2023-03-17T18:18:47.190Z,11.65
2023-03-17T18:21:15.835Z,11.61
2023-03-17T18:23:47.045Z,11.64
2023-03-17T18:26:20.192Z,11.54
2023-03-17T18:28:48.664Z,11.54
2023-03-17T18:31:23.425Z,11.54
2023-03-17T18:33:58.642Z,11.48
2023-03-17T18:36:27.799Z,11.48
2023-03-17T18:38:55.883Z,11.45
2023-03-17T18:41:27.120Z,11.53
2023-03-17T18:43:55.148Z,11.44
2023-03-17T18:46:23.112Z,11.39
2023-03-17T18:48:51.390Z,11.39
2023-03-17T18:51:19.508Z,11.34
2023-03-17T18:53:47.490Z,11.33
2023-03-17T18:56:15.953Z,11.32
2023-03-17T18:58:45.408Z,11.42
2023-03-17T19:01:13.422Z,11.28
2023-03-17T19:05:14.814Z,11.26
2023-03-17T19:07:49.733Z,11.25
2023-03-17T19:11:22.702Z,11.20
2023-03-17T19:17:54.965Z,11.22
2023-03-17T19:20:23.038Z,11.25
2023-03-17T19:22:53.167Z,11.14
2023-03-17T19:25:21.514Z,11.19
2023-03-17T19:27:49.499Z,11.09
2023-03-17T19:30:17.802Z,11.13
2023-03-17T19:32:45.914Z,11.14
2023-03-17T19:35:15.220Z,11.13
2023-03-17T19:37:43.163Z,11.10
2023-03-17T19:40:13.524Z,11.09
2023-03-17T19:42:41.757Z,11.09
2023-03-17T19:45:11.127Z,10.98
2023-03-17T19:47:39.084Z,10.88
2023-03-17T19:50:08.644Z,10.90
2023-03-17T19:52:38.002Z,10.95
2023-03-17T19:55:08.409Z,10.96
2023-03-17T19:57:36.783Z,10.88
2023-03-17T20:00:08.865Z,10.91
2023-03-17T20:02:38.149Z,11.00
2023-03-17T20:05:08.506Z,10.91
2023-03-17T20:07:38.074Z,10.84
2023-03-17T20:10:08.429Z,10.77
2023-03-17T20:12:38.458Z,10.78
2023-03-17T20:15:08.724Z,10.73
2023-03-17T20:17:37.457Z,10.66
2023-03-17T20:20:07.769Z,10.78
2023-03-17T20:22:38.645Z,10.63
2023-03-17T20:25:10.337Z,10.64
2023-03-17T20:27:38.619Z,10.61
2023-03-17T20:30:12.098Z,10.61
2023-03-17T20:32:40.760Z,10.55
2023-03-17T20:35:09.831Z,10.52
2023-03-17T20:37:39.905Z,10.53
2023-03-17T20:40:11.767Z,10.55
2023-03-17T20:42:44.416Z,10.50
2023-03-17T20:45:19.776Z,10.48
2023-03-17T20:47:57.478Z,10.44
2023-03-17T20:50:31.590Z,10.39
2023-03-17T20:53:05.388Z,10.30
2023-03-17T20:55:37.359Z,10.35
2023-03-17T20:58:14.305Z,10.23
2023-03-17T21:00:49.710Z,10.23
2023-03-17T21:03:22.965Z,10.30
2023-03-17T21:05:54.542Z,10.32
2023-03-17T21:08:31.408Z,10.28
2023-03-17T21:11:08.140Z,10.26
2023-03-17T21:13:40.977Z,10.25
2023-03-17T21:16:20.311Z,10.21
2023-03-17T21:18:57.337Z,10.17
2023-03-17T21:21:30.401Z,10.12
2023-03-17T21:24:02.043Z,10.11
2023-03-17T21:26:30.279Z,9.98
2023-03-17T21:28:58.246Z,10.01
2023-03-17T21:31:26.284Z,10.06
2023-03-17T21:33:54.289Z,9.97
2023-03-17T21:36:22.218Z,9.89
2023-03-17T21:38:50.441Z,9.81
2023-03-17T21:41:33.475Z,9.79
2023-03-17T21:44:02.764Z,9.80
2023-03-17T21:46:31.654Z,9.86
2023-03-17T21:49:00.442Z,9.84
2023-03-17T21:51:29.636Z,9.73
2023-03-17T21:53:58.317Z,9.74
2023-03-17T21:56:27.657Z,9.68
2023-03-17T21:58:55.982Z,9.67
2023-03-17T22:01:24.687Z,9.63
2023-03-17T22:03:53.420Z,9.77
2023-03-17T22:06:22.508Z,9.67
2023-03-17T22:08:50.587Z,9.58
2023-03-17T22:11:20.497Z,9.61
2023-03-17T22:13:49.839Z,9.56
2023-03-17T22:16:19.621Z,9.48
2023-03-17T22:18:47.889Z,9.52
2023-03-17T22:21:15.869Z,9.51
2023-03-17T22:23:44.308Z,9.51
2023-03-17T22:26:16.057Z,9.44
2023-03-17T22:28:45.727Z,9.35
2023-03-17T22:31:18.433Z,9.35
2023-03-17T22:33:48.460Z,9.37
2023-03-17T22:36:17.858Z,9.43
2023-03-17T22:38:46.814Z,9.40
2023-03-17T22:41:17.724Z,9.26
2023-03-17T22:43:47.049Z,9.25
2023-03-17T22:46:17.831Z,9.24
2023-03-17T22:48:46.729Z,9.30
2023-03-17T22:51:17.516Z,9.18
2023-03-17T22:53:46.830Z,9.23
2023-03-17T22:56:17.391Z,9.33
2023-03-17T22:58:47.081Z,9.62
2023-03-17T23:01:17.997Z,9.39
2023-03-17T23:03:47.208Z,9.42
2023-03-17T23:06:16.082Z,9.54
2023-03-17T23:08:45.742Z,9.39
2023-03-17T23:11:17.166Z,9.51
2023-03-17T23:13:45.832Z,9.50
2023-03-17T23:16:14.647Z,9.44
2023-03-17T23:18:46.853Z,9.39
2023-03-17T23:21:24.700Z,9.35
2023-03-17T23:23:53.233Z,9.33
2023-03-17T23:26:21.969Z,9.30
2023-03-17T23:28:50.088Z,9.36
2023-03-17T23:31:19.436Z,9.42
2023-03-17T23:33:50.359Z,9.55
2023-03-17T23:36:19.374Z,9.53
2023-03-17T23:38:48.526Z,9.52
2023-03-17T23:41:17.430Z,9.38
2023-03-17T23:43:46.681Z,9.43
2023-03-17T23:46:15.135Z,9.49
2023-03-17T23:48:43.479Z,9.37
2023-03-17T23:51:14.314Z,9.40
2023-03-17T23:53:42.922Z,9.45
2023-03-17T23:56:12.896Z,9.31
2023-03-17T23:58:42.310Z,9.40
